DO8TBO-15 Weather Reports


Display with metric or nautical units.
time (UTC)temp
F
wind
direction
speed
MPH
gust
MPH
rain 1hr
in
rain 24hr
in
rain mn
in
humidity
%
barometer
mb
20240221143106 52 190 2.0 6.0 0.00 0.00 0.00 1016.5
20240221142102 52 108 1.0 3.0 0.00 0.00 0.00 1016.7
20240221141058 52 222 2.0 8.0 0.00 0.00 0.00 1016.9
20240221140054 52 246 2.0 7.0 0.00 0.00 0.00 1017.0
20240221135050 52 198 2.0 6.0 0.00 0.00 0.00 1017.0
20240221134047 53 232 1.0 4.0 0.00 0.00 0.00 1017.1
20240221133043 53 217 2.0 6.0 0.00 0.00 0.00 1017.2
20240221132039 52 202 1.0 4.0 0.00 0.00 0.00 1017.4
20240221131035 52 238 2.0 6.0 0.00 0.00 0.00 1017.7
20240221125027 51 278 4.0 8.0 0.00 0.00 0.00 1018.2
20240221124024 51 229 3.0 9.0 0.00 0.00 0.00 1018.3
20240221123021 51 200 3.0 9.0 0.00 0.00 0.00 1018.5
20240221122016 51 288 2.0 4.0 0.00 0.00 0.00 1018.6
20240221121112 51 326 1.0 7.0 0.00 0.00 0.00 1018.9
20240221120108 51 300 1.0 7.0 0.00 0.00 0.00 1019.0
20240221115105 51 242 2.0 7.0 0.00 0.00 0.00 1019.3
20240221114102 52 269 2.0 8.0 0.00 0.00 0.00 1019.4
20240221113058 51 204 3.0 9.0 0.00 0.00 0.00 1019.6
20240221112053 51 256 3.0 8.0 0.00 0.00 0.00 1019.7
20240221111050 50 235 3.0 7.0 0.00 0.00 0.00 1019.9
20240221110046 49 220 2.0 8.0 0.00 0.00 0.00 1020.2
20240221105042 50 246 4.0 8.0 0.00 0.00 0.00 1020.3
20240221104038 49 291 4.0 11.0 0.00 0.00 0.00 1020.4
20240221103034 48 278 2.0 8.0 0.00 0.00 0.00 1020.5
20240221102031 48 286 3.0 8.0 0.00 0.00 0.00 1020.6
20240221101027 48 225 4.0 8.0 0.00 0.00 0.00 1020.5
20240221100023 47 252 4.0 10.0 0.00 0.00 0.00 1020.7
20240221095019 48 212 5.0 11.0 0.00 0.00 0.00 1020.9
20240221094016 48 224 4.0 10.0 0.00 0.00 0.00 1021.0
20240221093112 47 235 2.0 8.0 0.00 0.00 0.00 10 1021.1
20240221092109 47 291 0.0 5.0 0.00 0.00 0.00 12 1021.2
20240221091105 46 0.0 2.0 0.00 0.00 0.00 15 1021.3
20240221090101 45 233 2.0 5.0 0.00 0.00 0.00 16 1021.3
20240221085057 45 242 1.0 4.0 0.00 0.00 0.00 16 1021.4
20240221084053 45 237 1.0 6.0 0.00 0.00 0.00 15 1021.5
20240221083049 46 217 3.0 6.0 0.00 0.00 0.00 16 1021.5
20240221082046 45 228 2.0 6.0 0.00 0.00 0.00 19 1021.4
20240221081042 45 255 1.0 4.0 0.00 0.00 0.00 22 1021.3
20240221080038 44 227 2.0 5.0 0.00 0.00 0.00 24 1021.6
20240221075034 44 223 2.0 5.0 0.00 0.00 0.00 29 1021.5
20240221073026 44 0.0 0.0 0.00 0.00 0.00 38 1021.8
20240221072023 43 0.0 0.0 0.00 0.00 0.00 38 1021.9
20240221071019 43 180 1.0 3.0 0.00 0.00 0.00 40 1022.0
20240221070015 43 166 1.0 4.0 0.00 0.00 0.00 40 1021.9
20240221065111 43 152 1.0 5.0 0.00 0.00 0.00 40 1021.9
20240221064108 43 138 1.0 4.0 0.00 0.00 0.00 40 1021.9
20240221063104 43 134 2.0 5.0 0.00 0.00 0.00 39 1021.8
20240221061057 43 205 1.0 3.0 0.00 0.00 0.00 34 1021.8
20240221060052 43 192 0.0 3.0 0.00 0.00 0.00 31 1021.7
20240221055048 43 225 0.0 3.0 0.00 0.00 0.00 28 1021.8
20240221054045 43 0.0 0.0 0.00 0.00 0.00 27 1021.9
20240221053041 43 0.0 0.0 0.00 0.00 0.00 26 1022.2
20240221052037 43 0.0 0.0 0.00 0.00 0.00 25 1022.2
20240221051034 43 0.0 0.0 0.00 0.00 0.00 25 1022.4
20240221050029 43 0.0 0.0 0.00 0.00 0.00 25 1022.5
20240221045025 43 0.0 0.0 0.00 0.00 0.00 25 1022.5
20240221044022 43 225 0.0 2.0 0.00 0.00 0.00 24 1022.5
20240221043018 43 225 0.0 2.0 0.00 0.00 0.00 23 1022.5
20240221042115 44 0.0 0.0 0.00 0.00 0.00 22 1022.6
20240221041111 44 254 1.0 4.0 0.00 0.00 0.00 22 1022.8
20240221040107 44 244 2.0 5.0 0.00 0.00 0.00 22 1023.0
20240221035104 44 243 3.0 8.0 0.00 0.00 0.00 22 1022.9
20240221034059 44 240 1.0 5.0 0.00 0.00 0.00 22 1022.8
20240221033055 44 204 2.0 5.0 0.00 0.00 0.00 21 1022.8
20240221032052 44 226 2.0 4.0 0.00 0.00 0.00 20 1022.8
20240221030044 44 203 0.0 2.0 0.00 0.00 0.00 15 1022.8
20240221025040 44 0.0 0.0 0.00 0.00 0.00 14 1023.0
20240221024036 44 0.0 0.0 0.00 0.00 0.00 14 1023.4
20240221023033 44 0.0 0.0 0.00 0.00 0.00 14 1023.5
20240221022029 44 0.0 0.0 0.00 0.00 0.00 14 1023.7
20240221021025 44 0.0 0.0 0.00 0.00 0.00 13 1023.8
20240221020021 44 0.0 2.0 0.00 0.00 0.00 14 1023.9
20240221015018 44 0.0 0.0 0.00 0.00 0.00 14 1024.0
20240221014114 44 0.0 2.0 0.00 0.00 0.00 15 1024.0
20240221013110 44 0.0 1.0 0.00 0.00 0.00 16 1024.0
20240221012107 44 0.0 0.0 0.00 0.00 0.00 17 1024.2
20240221011103 43 0.0 1.0 0.00 0.00 0.00 18 1024.3
20240221010059 43 270 0.0 2.0 0.00 0.00 0.00 19 1024.4
20240221005055 43 240 0.0 3.0 0.00 0.00 0.00 19 1024.4
20240221004051 43 0.0 3.0 0.00 0.00 0.00 19 1024.5
20240221003048 43 192 0.0 3.0 0.00 0.01 0.00 18 1024.6
20240221002044 43 135 0.0 2.0 0.00 0.01 0.00 18 1024.9
20240221001040 43 225 0.0 2.0 0.00 0.01 0.00 18 1025.0
20240221000036 43 197 0.0 3.0 0.00 0.01 0.00 19 1025.2
20240220235032 43 217 1.0 4.0 0.00 0.01 0.00 20 1025.2
20240220234029 43 180 0.0 3.0 0.00 0.01 0.00 18 1025.2
20240220233025 43 180 0.0 3.0 0.00 0.01 0.00 16 1025.4
20240220232021 43 0.0 2.0 0.00 0.01 0.00 14 1025.4
20240220231017 43 0.0 2.0 0.00 0.01 0.00 13 1025.4
20240220230114 44 0.0 0.0 0.00 0.01 0.00 13 1025.5
20240220225110 44 0.0 2.0 0.00 0.01 0.01 12 1025.6
20240220224106 44 0.0 0.0 0.00 0.01 0.01 11 1025.8
20240220223102 44 0.0 0.0 0.00 0.01 0.01 11 1026.0
20240220222059 43 0.0 0.0 0.00 0.02 0.01 10 1026.0
20240220221055 43 0.0 0.0 0.00 0.02 0.01 10 1026.1
20240220220051 43 0.0 0.0 0.00 0.02 0.01 1026.2
20240220215047 43 0.0 0.0 0.00 0.02 0.01 1026.2
20240220214043 43 0.0 0.0 0.00 0.02 0.01 1026.3
20240220213040 43 0.0 0.0 0.00 0.02 0.01 1026.3
20240220212037 44 0.0 0.0 0.00 0.02 0.01 1026.4
20240220211032 44 0.0 0.0 0.00 0.02 0.01 1026.4
20240220210028 44 0.0 0.0 0.00 0.02 0.01 1026.4
20240220205024 44 0.0 0.0 0.00 0.02 0.01 1026.3
20240220204020 44 0.0 0.0 0.00 0.02 0.01 1026.4
20240220203018 45 0.0 0.0 0.00 0.02 0.01 1026.3
20240220202113 45 0.0 0.0 0.00 0.02 0.01 1026.3
20240220201109 45 0.0 1.0 0.00 0.02 0.01 1026.2
20240220200105 45 0.0 2.0 0.00 0.02 0.01 1026.5
20240220195101 45 270 0.0 3.0 0.00 0.02 0.01 1026.5
20240220194058 45 0.0 0.0 0.00 0.02 0.01 1026.6
20240220193054 45 0.0 0.0 0.00 0.02 0.01 1026.5
20240220192050 45 0.0 2.0 0.00 0.02 0.01 1026.5
20240220191046 45 0.0 0.0 0.00 0.02 0.01 1026.5
20240220190043 45 0.0 0.0 0.00 0.02 0.01 1026.6
20240220185038 45 0.0 0.0 0.00 0.02 0.01 1026.6
20240220184035 45 0.0 0.0 0.00 0.02 0.01 1026.7
20240220183031 45 0.0 0.0 0.00 0.02 0.01 1026.7
20240220182027 46 0.0 0.0 0.00 0.02 0.01 1026.7
20240220181023 45 0.0 0.0 0.00 0.02 0.01 1026.7
20240220180019 46 0.0 0.0 0.00 0.02 0.01 1026.7
20240220175015 46 0.0 0.0 0.00 0.02 0.01 1026.8
20240220174112 46 0.0 0.0 0.00 0.02 0.01 1026.8
20240220173109 47 0.0 1.0 0.00 0.02 0.01 1026.7
20240220172104 47 0.0 2.0 0.00 0.02 0.01 1026.6
20240220171100 47 180 0.0 3.0 0.00 0.02 0.01 1026.5
20240220170057 47 180 0.0 3.0 0.00 0.02 0.01 1026.4
20240220165053 48 246 1.0 4.0 0.00 0.02 0.01 1026.4
20240220164049 48 225 0.0 4.0 0.00 0.02 0.01 1026.4
20240220163045 48 300 0.0 4.0 0.00 0.02 0.01 1026.4
20240220162042 48 236 0.0 3.0 0.00 0.02 0.01 1026.3
20240220161038 49 222 1.0 4.0 0.00 0.02 0.01 1026.3
20240220160034 49 292 1.0 6.0 0.00 0.02 0.01 1026.4
20240220155030 49 249 1.0 6.0 0.00 0.02 0.01 1026.5
20240220154027 49 270 0.0 4.0 0.00 0.02 0.01 1026.7
20240220153023 49 315 1.0 4.0 0.00 0.02 0.01 1026.6
20240220152019 50 225 0.0 3.0 0.00 0.02 0.01 1026.7
20240220151015 50 155 1.0 4.0 0.00 0.02 0.01 1026.7
20240220150112 50 289 1.0 7.0 0.00 0.02 0.01 1026.7
20240220145108 50 315 1.0 6.0 0.00 0.02 0.01 1026.6
20240220144104 51 0 1.0 6.0 0.00 0.02 0.01 1026.7